sensor_id;sensor_type;location;lat;lon;timestamp;P1;durP1;ratioP1;P2;durP2;ratioP2
2672;SDS011;1346;51.558;6.996;2022-07-15T00:01:35;6.97;;;2.97;;
2672;SDS011;1346;51.558;6.996;2022-07-15T00:04:04;7.77;;;2.80;;
2672;SDS011;1346;51.558;6.996;2022-07-15T00:06:31;7.23;;;3.37;;
2672;SDS011;1346;51.558;6.996;2022-07-15T00:08:58;10.63;;;2.80;;
2672;SDS011;1346;51.558;6.996;2022-07-15T00:11:25;3.97;;;2.60;;
2672;SDS011;1346;51.558;6.996;2022-07-15T00:13:52;8.83;;;3.23;;
2672;SDS011;1346;51.558;6.996;2022-07-15T00:16:19;7.63;;;2.80;;
2672;SDS011;1346;51.558;6.996;2022-07-15T00:18:46;10.10;;;3.70;;
2672;SDS011;1346;51.558;6.996;2022-07-15T00:21:14;10.83;;;3.20;;
2672;SDS011;1346;51.558;6.996;2022-07-15T00:23:41;7.50;;;2.70;;
2672;SDS011;1346;51.558;6.996;2022-07-15T00:26:08;9.90;;;2.70;;
2672;SDS011;1346;51.558;6.996;2022-07-15T00:28:35;7.50;;;2.70;;
2672;SDS011;1346;51.558;6.996;2022-07-15T00:31:02;15.27;;;3.07;;
2672;SDS011;1346;51.558;6.996;2022-07-15T00:33:28;8.13;;;2.60;;
2672;SDS011;1346;51.558;6.996;2022-07-15T00:35:55;5.20;;;2.90;;
2672;SDS011;1346;51.558;6.996;2022-07-15T00:38:24;4.00;;;2.20;;
2672;SDS011;1346;51.558;6.996;2022-07-15T00:40:51;13.00;;;2.47;;
2672;SDS011;1346;51.558;6.996;2022-07-15T00:43:18;6.17;;;2.60;;
2672;SDS011;1346;51.558;6.996;2022-07-15T00:45:45;6.70;;;2.53;;
2672;SDS011;1346;51.558;6.996;2022-07-15T00:48:13;7.23;;;2.47;;
2672;SDS011;1346;51.558;6.996;2022-07-15T00:50:40;7.53;;;2.43;;
2672;SDS011;1346;51.558;6.996;2022-07-15T00:53:10;11.83;;;2.80;;
2672;SDS011;1346;51.558;6.996;2022-07-15T00:55:44;6.07;;;2.80;;
2672;SDS011;1346;51.558;6.996;2022-07-15T00:58:14;4.03;;;2.37;;
2672;SDS011;1346;51.558;6.996;2022-07-15T01:00:44;7.93;;;2.83;;
2672;SDS011;1346;51.558;6.996;2022-07-15T01:03:13;4.40;;;2.80;;
2672;SDS011;1346;51.558;6.996;2022-07-15T01:05:42;11.00;;;3.13;;
2672;SDS011;1346;51.558;6.996;2022-07-15T01:08:11;9.73;;;2.60;;
2672;SDS011;1346;51.558;6.996;2022-07-15T01:10:38;10.00;;;2.67;;
2672;SDS011;1346;51.558;6.996;2022-07-15T01:13:08;8.63;;;3.10;;
2672;SDS011;1346;51.558;6.996;2022-07-15T01:15:34;5.90;;;2.77;;
2672;SDS011;1346;51.558;6.996;2022-07-15T01:18:02;5.17;;;2.87;;
2672;SDS011;1346;51.558;6.996;2022-07-15T01:20:30;5.20;;;2.70;;
2672;SDS011;1346;51.558;6.996;2022-07-15T01:22:59;12.20;;;3.03;;
2672;SDS011;1346;51.558;6.996;2022-07-15T01:25:26;7.23;;;2.80;;
2672;SDS011;1346;51.558;6.996;2022-07-15T01:27:54;12.80;;;2.90;;
2672;SDS011;1346;51.558;6.996;2022-07-15T01:30:21;14.40;;;3.20;;
2672;SDS011;1346;51.558;6.996;2022-07-15T01:32:48;8.40;;;2.70;;
2672;SDS011;1346;51.558;6.996;2022-07-15T01:35:15;5.73;;;2.40;;
2672;SDS011;1346;51.558;6.996;2022-07-15T01:37:43;8.57;;;2.60;;
2672;SDS011;1346;51.558;6.996;2022-07-15T01:40:11;9.77;;;2.97;;
2672;SDS011;1346;51.558;6.996;2022-07-15T01:42:38;9.20;;;2.77;;
2672;SDS011;1346;51.558;6.996;2022-07-15T01:45:06;7.10;;;2.87;;
2672;SDS011;1346;51.558;6.996;2022-07-15T01:47:35;4.37;;;2.80;;
2672;SDS011;1346;51.558;6.996;2022-07-15T01:50:08;4.93;;;2.40;;
2672;SDS011;1346;51.558;6.996;2022-07-15T01:52:34;7.00;;;2.73;;
2672;SDS011;1346;51.558;6.996;2022-07-15T01:55:01;8.50;;;2.90;;
2672;SDS011;1346;51.558;6.996;2022-07-15T01:57:30;8.07;;;3.33;;
2672;SDS011;1346;51.558;6.996;2022-07-15T01:59:56;7.67;;;3.13;;
2672;SDS011;1346;51.558;6.996;2022-07-15T02:02:23;9.93;;;3.10;;
2672;SDS011;1346;51.558;6.996;2022-07-15T02:04:51;5.73;;;2.80;;
2672;SDS011;1346;51.558;6.996;2022-07-15T02:07:18;7.90;;;3.07;;
2672;SDS011;1346;51.558;6.996;2022-07-15T02:09:45;7.90;;;3.50;;
2672;SDS011;1346;51.558;6.996;2022-07-15T02:12:12;7.47;;;3.10;;
2672;SDS011;1346;51.558;6.996;2022-07-15T02:14:41;7.77;;;3.53;;
2672;SDS011;1346;51.558;6.996;2022-07-15T02:17:08;8.50;;;3.23;;
2672;SDS011;1346;51.558;6.996;2022-07-15T02:19:35;9.90;;;3.40;;
2672;SDS011;1346;51.558;6.996;2022-07-15T02:22:01;8.50;;;3.73;;
2672;SDS011;1346;51.558;6.996;2022-07-15T02:24:28;6.73;;;3.07;;
2672;SDS011;1346;51.558;6.996;2022-07-15T02:26:55;12.40;;;3.43;;
2672;SDS011;1346;51.558;6.996;2022-07-15T02:29:22;10.73;;;3.90;;
2672;SDS011;1346;51.558;6.996;2022-07-15T02:31:50;9.53;;;3.50;;
2672;SDS011;1346;51.558;6.996;2022-07-15T02:34:17;9.60;;;3.80;;
2672;SDS011;1346;51.558;6.996;2022-07-15T02:36:44;10.80;;;3.57;;
2672;SDS011;1346;51.558;6.996;2022-07-15T02:39:11;7.93;;;3.60;;
2672;SDS011;1346;51.558;6.996;2022-07-15T02:41:38;7.43;;;3.90;;
2672;SDS011;1346;51.558;6.996;2022-07-15T02:44:05;9.23;;;4.13;;
2672;SDS011;1346;51.558;6.996;2022-07-15T02:46:32;9.90;;;3.80;;
2672;SDS011;1346;51.558;6.996;2022-07-15T02:49:00;8.13;;;3.73;;
2672;SDS011;1346;51.558;6.996;2022-07-15T02:51:27;10.77;;;3.60;;
2672;SDS011;1346;51.558;6.996;2022-07-15T02:53:54;10.97;;;3.80;;
2672;SDS011;1346;51.558;6.996;2022-07-15T02:56:21;7.33;;;3.70;;
2672;SDS011;1346;51.558;6.996;2022-07-15T02:58:48;6.33;;;3.33;;
2672;SDS011;1346;51.558;6.996;2022-07-15T03:01:15;11.43;;;3.83;;
2672;SDS011;1346;51.558;6.996;2022-07-15T03:03:42;10.80;;;3.50;;
2672;SDS011;1346;51.558;6.996;2022-07-15T03:06:10;8.03;;;3.90;;
2672;SDS011;1346;51.558;6.996;2022-07-15T03:08:37;11.10;;;4.00;;
2672;SDS011;1346;51.558;6.996;2022-07-15T03:11:04;10.10;;;3.43;;
2672;SDS011;1346;51.558;6.996;2022-07-15T03:13:31;6.63;;;3.87;;
2672;SDS011;1346;51.558;6.996;2022-07-15T03:15:58;9.20;;;3.40;;
2672;SDS011;1346;51.558;6.996;2022-07-15T03:18:25;13.03;;;3.60;;
2672;SDS011;1346;51.558;6.996;2022-07-15T03:20:52;10.80;;;3.93;;
2672;SDS011;1346;51.558;6.996;2022-07-15T03:23:20;9.00;;;3.80;;
2672;SDS011;1346;51.558;6.996;2022-07-15T03:25:47;8.13;;;3.13;;
2672;SDS011;1346;51.558;6.996;2022-07-15T03:28:14;14.33;;;3.97;;
2672;SDS011;1346;51.558;6.996;2022-07-15T03:30:41;10.30;;;4.20;;
2672;SDS011;1346;51.558;6.996;2022-07-15T03:33:08;11.47;;;3.80;;
2672;SDS011;1346;51.558;6.996;2022-07-15T03:35:34;14.43;;;3.90;;
2672;SDS011;1346;51.558;6.996;2022-07-15T03:38:01;7.80;;;3.33;;
2672;SDS011;1346;51.558;6.996;2022-07-15T03:40:30;12.80;;;3.70;;
2672;SDS011;1346;51.558;6.996;2022-07-15T03:42:57;10.80;;;3.67;;
2672;SDS011;1346;51.558;6.996;2022-07-15T03:45:24;9.00;;;3.60;;
2672;SDS011;1346;51.558;6.996;2022-07-15T03:47:51;13.40;;;3.90;;
2672;SDS011;1346;51.558;6.996;2022-07-15T03:50:18;9.43;;;3.80;;
2672;SDS011;1346;51.558;6.996;2022-07-15T03:52:45;8.50;;;3.90;;
2672;SDS011;1346;51.558;6.996;2022-07-15T03:55:12;20.93;;;4.63;;
2672;SDS011;1346;51.558;6.996;2022-07-15T03:57:40;10.53;;;4.53;;
2672;SDS011;1346;51.558;6.996;2022-07-15T04:00:07;13.83;;;4.90;;
2672;SDS011;1346;51.558;6.996;2022-07-15T04:02:35;6.13;;;3.63;;
2672;SDS011;1346;51.558;6.996;2022-07-15T04:05:03;11.63;;;4.27;;
2672;SDS011;1346;51.558;6.996;2022-07-15T04:07:30;10.70;;;4.27;;
2672;SDS011;1346;51.558;6.996;2022-07-15T04:09:57;9.73;;;4.40;;
2672;SDS011;1346;51.558;6.996;2022-07-15T04:12:24;12.90;;;4.47;;
2672;SDS011;1346;51.558;6.996;2022-07-15T04:14:52;13.00;;;4.10;;
2672;SDS011;1346;51.558;6.996;2022-07-15T04:17:19;8.03;;;4.20;;
2672;SDS011;1346;51.558;6.996;2022-07-15T04:19:47;11.67;;;4.30;;
2672;SDS011;1346;51.558;6.996;2022-07-15T04:22:14;17.67;;;4.67;;
2672;SDS011;1346;51.558;6.996;2022-07-15T04:24:41;7.03;;;4.17;;
2672;SDS011;1346;51.558;6.996;2022-07-15T04:27:08;13.97;;;5.03;;
2672;SDS011;1346;51.558;6.996;2022-07-15T04:29:35;9.73;;;4.33;;
2672;SDS011;1346;51.558;6.996;2022-07-15T04:32:04;9.97;;;3.97;;
2672;SDS011;1346;51.558;6.996;2022-07-15T04:34:31;14.63;;;4.40;;
2672;SDS011;1346;51.558;6.996;2022-07-15T04:36:58;7.20;;;3.90;;
2672;SDS011;1346;51.558;6.996;2022-07-15T04:39:25;9.30;;;4.10;;
2672;SDS011;1346;51.558;6.996;2022-07-15T04:41:53;13.63;;;4.83;;
2672;SDS011;1346;51.558;6.996;2022-07-15T04:44:20;8.90;;;4.23;;
2672;SDS011;1346;51.558;6.996;2022-07-15T04:46:46;8.03;;;3.73;;
2672;SDS011;1346;51.558;6.996;2022-07-15T04:49:15;12.40;;;4.60;;
2672;SDS011;1346;51.558;6.996;2022-07-15T04:51:59;9.30;;;4.23;;
2672;SDS011;1346;51.558;6.996;2022-07-15T04:54:26;8.77;;;3.93;;
2672;SDS011;1346;51.558;6.996;2022-07-15T04:56:53;10.70;;;3.77;;
2672;SDS011;1346;51.558;6.996;2022-07-15T04:59:20;17.73;;;4.90;;
2672;SDS011;1346;51.558;6.996;2022-07-15T05:01:46;10.97;;;4.50;;
2672;SDS011;1346;51.558;6.996;2022-07-15T05:04:15;11.97;;;4.70;;
2672;SDS011;1346;51.558;6.996;2022-07-15T05:06:42;10.33;;;3.90;;
2672;SDS011;1346;51.558;6.996;2022-07-15T05:09:08;13.53;;;4.60;;
2672;SDS011;1346;51.558;6.996;2022-07-15T05:11:35;12.23;;;3.90;;
2672;SDS011;1346;51.558;6.996;2022-07-15T05:14:02;12.83;;;4.53;;
2672;SDS011;1346;51.558;6.996;2022-07-15T05:16:29;11.83;;;5.03;;
2672;SDS011;1346;51.558;6.996;2022-07-15T05:18:56;7.80;;;4.00;;
2672;SDS011;1346;51.558;6.996;2022-07-15T05:21:24;11.40;;;4.00;;
2672;SDS011;1346;51.558;6.996;2022-07-15T05:23:51;18.10;;;4.13;;
2672;SDS011;1346;51.558;6.996;2022-07-15T05:26:18;14.40;;;4.70;;
2672;SDS011;1346;51.558;6.996;2022-07-15T05:28:45;14.77;;;3.80;;
2672;SDS011;1346;51.558;6.996;2022-07-15T05:31:12;10.30;;;3.60;;
2672;SDS011;1346;51.558;6.996;2022-07-15T05:33:39;9.00;;;3.40;;
2672;SDS011;1346;51.558;6.996;2022-07-15T05:36:10;12.10;;;3.93;;
2672;SDS011;1346;51.558;6.996;2022-07-15T05:38:40;12.43;;;3.37;;
2672;SDS011;1346;51.558;6.996;2022-07-15T05:41:07;5.60;;;3.40;;
2672;SDS011;1346;51.558;6.996;2022-07-15T05:43:34;7.97;;;2.87;;
2672;SDS011;1346;51.558;6.996;2022-07-15T05:46:02;10.33;;;2.70;;
2672;SDS011;1346;51.558;6.996;2022-07-15T05:48:29;10.83;;;3.37;;
2672;SDS011;1346;51.558;6.996;2022-07-15T05:50:56;15.53;;;3.87;;
2672;SDS011;1346;51.558;6.996;2022-07-15T05:53:23;13.53;;;5.27;;
2672;SDS011;1346;51.558;6.996;2022-07-15T05:55:51;14.40;;;4.30;;
2672;SDS011;1346;51.558;6.996;2022-07-15T05:58:18;13.80;;;4.07;;
2672;SDS011;1346;51.558;6.996;2022-07-15T06:00:45;8.03;;;3.00;;
2672;SDS011;1346;51.558;6.996;2022-07-15T06:03:12;8.70;;;3.03;;
2672;SDS011;1346;51.558;6.996;2022-07-15T06:05:38;9.00;;;3.13;;
2672;SDS011;1346;51.558;6.996;2022-07-15T06:08:05;11.00;;;3.00;;
2672;SDS011;1346;51.558;6.996;2022-07-15T06:10:33;11.87;;;2.87;;
2672;SDS011;1346;51.558;6.996;2022-07-15T06:13:01;7.20;;;2.80;;
2672;SDS011;1346;51.558;6.996;2022-07-15T06:15:29;13.80;;;2.53;;
2672;SDS011;1346;51.558;6.996;2022-07-15T06:17:56;16.03;;;2.87;;
2672;SDS011;1346;51.558;6.996;2022-07-15T06:20:23;8.43;;;2.90;;
2672;SDS011;1346;51.558;6.996;2022-07-15T06:22:50;8.83;;;2.50;;
2672;SDS011;1346;51.558;6.996;2022-07-15T06:25:17;11.33;;;2.57;;
2672;SDS011;1346;51.558;6.996;2022-07-15T06:27:45;5.57;;;2.27;;
2672;SDS011;1346;51.558;6.996;2022-07-15T06:30:13;9.80;;;2.23;;
2672;SDS011;1346;51.558;6.996;2022-07-15T06:32:40;8.50;;;2.13;;
2672;SDS011;1346;51.558;6.996;2022-07-15T06:35:07;11.60;;;2.33;;
2672;SDS011;1346;51.558;6.996;2022-07-15T06:37:34;5.43;;;2.30;;
2672;SDS011;1346;51.558;6.996;2022-07-15T06:40:02;6.13;;;1.90;;
2672;SDS011;1346;51.558;6.996;2022-07-15T06:42:30;6.20;;;1.83;;
2672;SDS011;1346;51.558;6.996;2022-07-15T06:44:56;6.23;;;1.80;;
2672;SDS011;1346;51.558;6.996;2022-07-15T06:47:25;6.10;;;2.17;;
2672;SDS011;1346;51.558;6.996;2022-07-15T06:49:53;11.93;;;2.23;;
2672;SDS011;1346;51.558;6.996;2022-07-15T06:52:20;8.33;;;2.27;;
2672;SDS011;1346;51.558;6.996;2022-07-15T06:54:47;4.20;;;1.80;;
2672;SDS011;1346;51.558;6.996;2022-07-15T06:57:14;9.27;;;2.10;;
2672;SDS011;1346;51.558;6.996;2022-07-15T06:59:41;7.97;;;1.77;;
2672;SDS011;1346;51.558;6.996;2022-07-15T07:02:08;4.60;;;1.97;;
2672;SDS011;1346;51.558;6.996;2022-07-15T07:04:37;9.37;;;2.00;;
2672;SDS011;1346;51.558;6.996;2022-07-15T07:07:04;9.77;;;2.50;;
2672;SDS011;1346;51.558;6.996;2022-07-15T07:09:31;5.60;;;1.97;;
2672;SDS011;1346;51.558;6.996;2022-07-15T07:11:59;8.03;;;2.03;;
2672;SDS011;1346;51.558;6.996;2022-07-15T07:14:26;7.57;;;1.73;;
2672;SDS011;1346;51.558;6.996;2022-07-15T07:16:53;7.67;;;1.90;;
2672;SDS011;1346;51.558;6.996;2022-07-15T07:19:20;6.10;;;2.40;;
2672;SDS011;1346;51.558;6.996;2022-07-15T07:21:48;7.03;;;2.03;;
2672;SDS011;1346;51.558;6.996;2022-07-15T07:24:15;7.30;;;1.97;;
2672;SDS011;1346;51.558;6.996;2022-07-15T07:26:42;8.57;;;2.20;;
2672;SDS011;1346;51.558;6.996;2022-07-15T07:29:09;10.47;;;1.93;;
2672;SDS011;1346;51.558;6.996;2022-07-15T07:31:37;4.30;;;1.70;;
2672;SDS011;1346;51.558;6.996;2022-07-15T07:34:04;7.63;;;1.83;;
2672;SDS011;1346;51.558;6.996;2022-07-15T07:36:31;8.60;;;1.70;;
2672;SDS011;1346;51.558;6.996;2022-07-15T07:38:59;6.53;;;2.03;;
2672;SDS011;1346;51.558;6.996;2022-07-15T07:41:26;8.63;;;1.70;;
2672;SDS011;1346;51.558;6.996;2022-07-15T07:43:53;7.90;;;1.73;;
2672;SDS011;1346;51.558;6.996;2022-07-15T07:46:20;7.30;;;1.67;;
2672;SDS011;1346;51.558;6.996;2022-07-15T07:48:48;9.73;;;1.73;;
2672;SDS011;1346;51.558;6.996;2022-07-15T07:51:15;5.23;;;1.80;;
2672;SDS011;1346;51.558;6.996;2022-07-15T07:53:43;9.30;;;1.90;;
2672;SDS011;1346;51.558;6.996;2022-07-15T07:56:12;5.37;;;2.23;;
2672;SDS011;1346;51.558;6.996;2022-07-15T07:58:40;2.60;;;1.33;;
2672;SDS011;1346;51.558;6.996;2022-07-15T08:01:07;2.83;;;1.37;;
2672;SDS011;1346;51.558;6.996;2022-07-15T08:03:34;9.73;;;1.77;;
2672;SDS011;1346;51.558;6.996;2022-07-15T08:06:01;5.90;;;1.50;;
2672;SDS011;1346;51.558;6.996;2022-07-15T08:08:28;6.23;;;1.90;;
2672;SDS011;1346;51.558;6.996;2022-07-15T08:10:56;3.93;;;1.87;;
2672;SDS011;1346;51.558;6.996;2022-07-15T08:13:25;7.17;;;1.30;;
2672;SDS011;1346;51.558;6.996;2022-07-15T08:15:53;4.70;;;1.50;;
2672;SDS011;1346;51.558;6.996;2022-07-15T08:18:21;3.17;;;1.23;;
2672;SDS011;1346;51.558;6.996;2022-07-15T08:20:49;3.73;;;1.07;;
2672;SDS011;1346;51.558;6.996;2022-07-15T08:23:16;5.97;;;1.60;;
2672;SDS011;1346;51.558;6.996;2022-07-15T08:25:46;11.00;;;2.43;;
2672;SDS011;1346;51.558;6.996;2022-07-15T08:28:14;5.97;;;1.70;;
2672;SDS011;1346;51.558;6.996;2022-07-15T08:30:44;6.20;;;1.33;;
2672;SDS011;1346;51.558;6.996;2022-07-15T08:33:12;9.43;;;1.67;;
2672;SDS011;1346;51.558;6.996;2022-07-15T08:35:39;10.50;;;1.60;;
2672;SDS011;1346;51.558;6.996;2022-07-15T08:38:07;5.57;;;1.63;;
2672;SDS011;1346;51.558;6.996;2022-07-15T08:40:36;5.30;;;1.50;;
2672;SDS011;1346;51.558;6.996;2022-07-15T08:43:05;9.23;;;1.70;;
2672;SDS011;1346;51.558;6.996;2022-07-15T08:45:34;7.27;;;2.10;;
2672;SDS011;1346;51.558;6.996;2022-07-15T08:48:04;11.20;;;2.60;;
2672;SDS011;1346;51.558;6.996;2022-07-15T08:50:32;6.87;;;2.10;;
2672;SDS011;1346;51.558;6.996;2022-07-15T08:53:01;9.23;;;1.80;;
2672;SDS011;1346;51.558;6.996;2022-07-15T08:55:30;3.83;;;1.20;;
2672;SDS011;1346;51.558;6.996;2022-07-15T08:57:57;6.27;;;1.47;;
2672;SDS011;1346;51.558;6.996;2022-07-15T09:00:24;6.70;;;1.23;;
2672;SDS011;1346;51.558;6.996;2022-07-15T09:02:55;4.63;;;1.70;;
2672;SDS011;1346;51.558;6.996;2022-07-15T09:05:26;3.37;;;1.70;;
2672;SDS011;1346;51.558;6.996;2022-07-15T09:07:58;12.73;;;2.23;;
2672;SDS011;1346;51.558;6.996;2022-07-15T09:10:41;4.20;;;1.33;;
2672;SDS011;1346;51.558;6.996;2022-07-15T09:13:25;7.00;;;1.43;;
2672;SDS011;1346;51.558;6.996;2022-07-15T09:15:56;6.27;;;1.50;;
2672;SDS011;1346;51.558;6.996;2022-07-15T09:18:26;6.47;;;2.20;;
2672;SDS011;1346;51.558;6.996;2022-07-15T09:20:58;4.10;;;1.70;;
2672;SDS011;1346;51.558;6.996;2022-07-15T09:23:26;4.30;;;1.27;;
2672;SDS011;1346;51.558;6.996;2022-07-15T09:25:56;9.83;;;2.37;;
2672;SDS011;1346;51.558;6.996;2022-07-15T09:28:52;3.87;;;1.20;;
2672;SDS011;1346;51.558;6.996;2022-07-15T09:31:26;3.40;;;1.30;;
2672;SDS011;1346;51.558;6.996;2022-07-15T09:34:14;4.60;;;1.17;;
2672;SDS011;1346;51.558;6.996;2022-07-15T09:36:42;3.00;;;1.47;;
2672;SDS011;1346;51.558;6.996;2022-07-15T09:39:16;3.53;;;1.17;;
2672;SDS011;1346;51.558;6.996;2022-07-15T09:41:45;2.47;;;1.10;;
2672;SDS011;1346;51.558;6.996;2022-07-15T09:44:14;3.13;;;1.30;;
2672;SDS011;1346;51.558;6.996;2022-07-15T09:46:43;5.83;;;0.80;;
2672;SDS011;1346;51.558;6.996;2022-07-15T09:49:13;6.33;;;1.50;;
2672;SDS011;1346;51.558;6.996;2022-07-15T09:51:44;4.80;;;1.10;;
2672;SDS011;1346;51.558;6.996;2022-07-15T09:54:14;6.30;;;1.40;;
2672;SDS011;1346;51.558;6.996;2022-07-15T09:56:42;2.70;;;1.07;;
2672;SDS011;1346;51.558;6.996;2022-07-15T09:59:12;12.60;;;2.10;;
2672;SDS011;1346;51.558;6.996;2022-07-15T10:01:40;5.87;;;1.50;;
2672;SDS011;1346;51.558;6.996;2022-07-15T10:04:08;6.47;;;1.67;;
2672;SDS011;1346;51.558;6.996;2022-07-15T10:06:37;3.03;;;1.50;;
2672;SDS011;1346;51.558;6.996;2022-07-15T10:09:05;5.23;;;1.70;;
2672;SDS011;1346;51.558;6.996;2022-07-15T10:11:34;4.37;;;1.20;;
2672;SDS011;1346;51.558;6.996;2022-07-15T10:14:19;5.00;;;1.60;;
2672;SDS011;1346;51.558;6.996;2022-07-15T10:17:17;4.70;;;1.57;;
2672;SDS011;1346;51.558;6.996;2022-07-15T10:20:12;4.17;;;1.60;;
2672;SDS011;1346;51.558;6.996;2022-07-15T10:22:59;5.23;;;1.50;;
2672;SDS011;1346;51.558;6.996;2022-07-15T10:25:42;3.63;;;1.30;;
2672;SDS011;1346;51.558;6.996;2022-07-15T10:28:45;9.90;;;1.80;;
2672;SDS011;1346;51.558;6.996;2022-07-15T10:31:19;3.57;;;0.97;;
2672;SDS011;1346;51.558;6.996;2022-07-15T10:36:53;7.03;;;1.30;;
2672;SDS011;1346;51.558;6.996;2022-07-15T10:39:24;5.80;;;1.57;;
2672;SDS011;1346;51.558;6.996;2022-07-15T10:41:54;2.60;;;1.30;;
2672;SDS011;1346;51.558;6.996;2022-07-15T10:44:23;3.10;;;1.27;;
2672;SDS011;1346;51.558;6.996;2022-07-15T10:49:46;5.70;;;1.50;;
2672;SDS011;1346;51.558;6.996;2022-07-15T10:52:15;11.87;;;1.30;;
2672;SDS011;1346;51.558;6.996;2022-07-15T10:54:44;4.67;;;1.70;;
2672;SDS011;1346;51.558;6.996;2022-07-15T10:57:14;6.57;;;1.97;;
2672;SDS011;1346;51.558;6.996;2022-07-15T10:59:47;3.37;;;1.70;;
2672;SDS011;1346;51.558;6.996;2022-07-15T11:02:17;2.40;;;0.87;;
2672;SDS011;1346;51.558;6.996;2022-07-15T11:04:49;4.80;;;1.20;;
2672;SDS011;1346;51.558;6.996;2022-07-15T11:07:18;2.33;;;1.23;;
2672;SDS011;1346;51.558;6.996;2022-07-15T11:09:50;3.13;;;1.17;;
2672;SDS011;1346;51.558;6.996;2022-07-15T11:12:20;3.03;;;1.30;;
2672;SDS011;1346;51.558;6.996;2022-07-15T11:14:50;5.37;;;0.70;;
2672;SDS011;1346;51.558;6.996;2022-07-15T11:17:21;5.47;;;1.23;;
2672;SDS011;1346;51.558;6.996;2022-07-15T11:20:03;1.50;;;0.80;;
2672;SDS011;1346;51.558;6.996;2022-07-15T11:22:34;3.83;;;1.13;;
2672;SDS011;1346;51.558;6.996;2022-07-15T11:25:04;4.13;;;1.17;;
2672;SDS011;1346;51.558;6.996;2022-07-15T11:27:32;2.37;;;0.90;;
2672;SDS011;1346;51.558;6.996;2022-07-15T11:30:00;2.60;;;0.97;;
2672;SDS011;1346;51.558;6.996;2022-07-15T11:32:31;2.30;;;0.87;;
2672;SDS011;1346;51.558;6.996;2022-07-15T11:35:00;1.77;;;0.60;;
2672;SDS011;1346;51.558;6.996;2022-07-15T11:37:29;3.30;;;1.00;;
2672;SDS011;1346;51.558;6.996;2022-07-15T11:40:06;3.90;;;1.03;;
2672;SDS011;1346;51.558;6.996;2022-07-15T11:42:36;3.57;;;0.90;;
2672;SDS011;1346;51.558;6.996;2022-07-15T11:45:31;4.10;;;0.80;;
2672;SDS011;1346;51.558;6.996;2022-07-15T11:48:03;2.00;;;0.80;;
2672;SDS011;1346;51.558;6.996;2022-07-15T11:50:32;2.97;;;0.77;;
2672;SDS011;1346;51.558;6.996;2022-07-15T11:53:00;1.77;;;0.60;;
2672;SDS011;1346;51.558;6.996;2022-07-15T11:55:46;4.17;;;1.00;;
2672;SDS011;1346;51.558;6.996;2022-07-15T11:58:28;3.60;;;0.93;;
2672;SDS011;1346;51.558;6.996;2022-07-15T12:00:57;1.50;;;0.50;;
2672;SDS011;1346;51.558;6.996;2022-07-15T12:03:31;4.47;;;0.90;;
2672;SDS011;1346;51.558;6.996;2022-07-15T12:06:01;2.33;;;0.80;;
2672;SDS011;1346;51.558;6.996;2022-07-15T12:08:35;4.83;;;0.87;;
2672;SDS011;1346;51.558;6.996;2022-07-15T12:11:10;2.37;;;1.03;;
2672;SDS011;1346;51.558;6.996;2022-07-15T12:13:43;2.10;;;0.73;;
2672;SDS011;1346;51.558;6.996;2022-07-15T12:16:18;2.10;;;0.50;;
2672;SDS011;1346;51.558;6.996;2022-07-15T12:18:49;1.57;;;0.60;;
2672;SDS011;1346;51.558;6.996;2022-07-15T12:21:18;3.60;;;0.90;;
2672;SDS011;1346;51.558;6.996;2022-07-15T12:23:58;5.90;;;0.70;;
2672;SDS011;1346;51.558;6.996;2022-07-15T12:26:28;2.00;;;0.70;;
2672;SDS011;1346;51.558;6.996;2022-07-15T12:28:56;3.37;;;0.90;;
2672;SDS011;1346;51.558;6.996;2022-07-15T12:31:26;5.33;;;0.80;;
2672;SDS011;1346;51.558;6.996;2022-07-15T12:33:55;2.60;;;0.90;;
2672;SDS011;1346;51.558;6.996;2022-07-15T12:36:23;7.67;;;1.00;;
2672;SDS011;1346;51.558;6.996;2022-07-15T12:39:05;6.00;;;0.83;;
2672;SDS011;1346;51.558;6.996;2022-07-15T12:41:43;1.73;;;0.50;;
2672;SDS011;1346;51.558;6.996;2022-07-15T12:44:23;2.33;;;0.77;;
2672;SDS011;1346;51.558;6.996;2022-07-15T12:46:51;1.93;;;0.77;;
2672;SDS011;1346;51.558;6.996;2022-07-15T12:49:39;2.20;;;0.60;;
2672;SDS011;1346;51.558;6.996;2022-07-15T12:52:12;1.77;;;0.60;;
2672;SDS011;1346;51.558;6.996;2022-07-15T12:54:45;3.73;;;0.80;;
2672;SDS011;1346;51.558;6.996;2022-07-15T13:00:06;2.63;;;0.70;;
2672;SDS011;1346;51.558;6.996;2022-07-15T13:02:57;2.70;;;0.77;;
2672;SDS011;1346;51.558;6.996;2022-07-15T13:05:34;1.40;;;0.70;;
2672;SDS011;1346;51.558;6.996;2022-07-15T13:08:04;3.10;;;0.70;;
2672;SDS011;1346;51.558;6.996;2022-07-15T13:10:31;2.73;;;0.80;;
2672;SDS011;1346;51.558;6.996;2022-07-15T13:12:59;2.03;;;0.60;;
2672;SDS011;1346;51.558;6.996;2022-07-15T13:15:27;2.90;;;0.73;;
2672;SDS011;1346;51.558;6.996;2022-07-15T13:17:54;1.90;;;0.63;;
2672;SDS011;1346;51.558;6.996;2022-07-15T13:20:21;2.03;;;0.60;;
2672;SDS011;1346;51.558;6.996;2022-07-15T13:22:50;2.00;;;0.60;;
2672;SDS011;1346;51.558;6.996;2022-07-15T13:25:17;1.20;;;0.50;;
2672;SDS011;1346;51.558;6.996;2022-07-15T13:27:45;3.20;;;0.60;;
2672;SDS011;1346;51.558;6.996;2022-07-15T13:30:12;1.97;;;0.60;;
2672;SDS011;1346;51.558;6.996;2022-07-15T13:32:40;1.90;;;0.70;;
2672;SDS011;1346;51.558;6.996;2022-07-15T13:35:09;3.57;;;0.60;;
2672;SDS011;1346;51.558;6.996;2022-07-15T13:37:37;2.43;;;0.60;;
2672;SDS011;1346;51.558;6.996;2022-07-15T13:40:07;2.63;;;0.90;;
2672;SDS011;1346;51.558;6.996;2022-07-15T13:42:36;1.73;;;0.60;;
2672;SDS011;1346;51.558;6.996;2022-07-15T13:45:04;4.90;;;0.70;;
2672;SDS011;1346;51.558;6.996;2022-07-15T13:47:33;1.33;;;0.60;;
2672;SDS011;1346;51.558;6.996;2022-07-15T13:50:00;2.90;;;0.80;;
2672;SDS011;1346;51.558;6.996;2022-07-15T13:52:55;2.30;;;0.50;;
2672;SDS011;1346;51.558;6.996;2022-07-15T13:55:25;2.57;;;0.83;;
2672;SDS011;1346;51.558;6.996;2022-07-15T13:57:52;3.10;;;0.70;;
2672;SDS011;1346;51.558;6.996;2022-07-15T14:00:20;1.50;;;0.70;;
2672;SDS011;1346;51.558;6.996;2022-07-15T14:02:50;2.00;;;1.10;;
2672;SDS011;1346;51.558;6.996;2022-07-15T14:05:18;4.50;;;0.83;;
2672;SDS011;1346;51.558;6.996;2022-07-15T14:07:46;2.23;;;0.70;;
2672;SDS011;1346;51.558;6.996;2022-07-15T14:10:13;1.63;;;0.50;;
2672;SDS011;1346;51.558;6.996;2022-07-15T14:12:42;3.57;;;0.60;;
2672;SDS011;1346;51.558;6.996;2022-07-15T14:15:09;1.43;;;0.60;;
2672;SDS011;1346;51.558;6.996;2022-07-15T14:17:36;3.30;;;0.83;;
2672;SDS011;1346;51.558;6.996;2022-07-15T14:20:03;2.37;;;0.70;;
2672;SDS011;1346;51.558;6.996;2022-07-15T14:22:33;3.83;;;0.80;;
2672;SDS011;1346;51.558;6.996;2022-07-15T14:25:00;1.80;;;0.57;;
2672;SDS011;1346;51.558;6.996;2022-07-15T14:27:27;2.43;;;0.60;;
2672;SDS011;1346;51.558;6.996;2022-07-15T14:29:55;1.73;;;0.83;;
2672;SDS011;1346;51.558;6.996;2022-07-15T14:32:22;3.83;;;0.80;;
2672;SDS011;1346;51.558;6.996;2022-07-15T14:34:49;1.77;;;0.50;;
2672;SDS011;1346;51.558;6.996;2022-07-15T14:37:16;2.97;;;1.07;;
2672;SDS011;1346;51.558;6.996;2022-07-15T14:39:43;4.13;;;0.70;;
2672;SDS011;1346;51.558;6.996;2022-07-15T14:42:10;5.47;;;0.80;;
2672;SDS011;1346;51.558;6.996;2022-07-15T14:44:37;1.40;;;0.70;;
2672;SDS011;1346;51.558;6.996;2022-07-15T14:47:05;2.93;;;0.70;;
2672;SDS011;1346;51.558;6.996;2022-07-15T14:49:32;3.13;;;0.60;;
2672;SDS011;1346;51.558;6.996;2022-07-15T14:52:00;6.57;;;0.83;;
2672;SDS011;1346;51.558;6.996;2022-07-15T14:54:27;2.60;;;1.00;;
2672;SDS011;1346;51.558;6.996;2022-07-15T14:56:54;1.97;;;0.60;;
2672;SDS011;1346;51.558;6.996;2022-07-15T14:59:20;3.40;;;0.90;;
2672;SDS011;1346;51.558;6.996;2022-07-15T15:01:47;4.60;;;0.90;;
2672;SDS011;1346;51.558;6.996;2022-07-15T15:04:16;3.00;;;0.87;;
2672;SDS011;1346;51.558;6.996;2022-07-15T15:06:43;2.40;;;0.80;;
2672;SDS011;1346;51.558;6.996;2022-07-15T15:09:09;2.10;;;0.67;;
2672;SDS011;1346;51.558;6.996;2022-07-15T15:11:37;1.70;;;0.60;;
2672;SDS011;1346;51.558;6.996;2022-07-15T15:14:03;1.83;;;0.80;;
2672;SDS011;1346;51.558;6.996;2022-07-15T15:16:31;2.60;;;0.80;;
2672;SDS011;1346;51.558;6.996;2022-07-15T15:18:58;5.47;;;0.80;;
2672;SDS011;1346;51.558;6.996;2022-07-15T15:21:26;3.70;;;0.80;;
2672;SDS011;1346;51.558;6.996;2022-07-15T15:23:53;5.73;;;0.80;;
2672;SDS011;1346;51.558;6.996;2022-07-15T15:26:20;3.00;;;0.70;;
2672;SDS011;1346;51.558;6.996;2022-07-15T15:28:47;4.13;;;0.90;;
2672;SDS011;1346;51.558;6.996;2022-07-15T15:31:15;1.77;;;0.80;;
2672;SDS011;1346;51.558;6.996;2022-07-15T15:33:42;3.27;;;0.70;;